Abingdon, United Kingdom
Current Conditions -  °F | °C
As of 10:50 PM on Saturday 20 Dec 2014 (Local Time) from EGUB Reporting Station
Clear Clear  
Wind Chill:   Ceiling: Unl
Heat Index:   Visibility: 6mi
Dew Point:   Wind: 2mph
Humidity: 93%   Direction: 230°SW
Pressure: 30.45"   Gusts: NA
Location:  51.67°N, 1.29°W
Report Text: EGUB 202250Z AUTO 23002KT 9999 // NCD 02/01 Q1031
Loading
Personal Weather Stations






























Interactive Weather Map New forecast layout! Learn more

10-Day Weather Forecast

Advertisements
Track Severe Weather on mobile